sensor_id;sensor_type;location;lat;lon;timestamp;P1;durP1;ratioP1;P2;durP2;ratioP2
64791;SDS011;51226;47.504;19.074;2022-11-12T00:00:35;38.65;;;30.27;;
64791;SDS011;51226;47.504;19.074;2022-11-12T00:03:57;37.88;;;29.40;;
64791;SDS011;51226;47.504;19.074;2022-11-12T00:07:18;38.58;;;29.98;;
64791;SDS011;51226;47.504;19.074;2022-11-12T00:10:39;41.45;;;28.55;;
64791;SDS011;51226;47.504;19.074;2022-11-12T00:14:00;37.05;;;28.85;;
64791;SDS011;51226;47.504;19.074;2022-11-12T00:17:22;37.08;;;29.75;;
64791;SDS011;51226;47.504;19.074;2022-11-12T00:20:43;32.22;;;27.05;;
64791;SDS011;51226;47.504;19.074;2022-11-12T00:24:04;33.03;;;27.27;;
64791;SDS011;51226;47.504;19.074;2022-11-12T00:27:26;32.65;;;26.58;;
64791;SDS011;51226;47.504;19.074;2022-11-12T00:30:47;37.33;;;27.62;;
64791;SDS011;51226;47.504;19.074;2022-11-12T00:34:09;30.77;;;25.00;;
64791;SDS011;51226;47.504;19.074;2022-11-12T00:37:30;33.05;;;25.33;;
64791;SDS011;51226;47.504;19.074;2022-11-12T00:40:51;32.08;;;25.70;;
64791;SDS011;51226;47.504;19.074;2022-11-12T00:44:12;36.53;;;27.23;;
64791;SDS011;51226;47.504;19.074;2022-11-12T00:47:33;31.67;;;25.95;;
64791;SDS011;51226;47.504;19.074;2022-11-12T00:51:02;35.47;;;26.65;;
64791;SDS011;51226;47.504;19.074;2022-11-12T00:54:25;34.45;;;27.65;;
64791;SDS011;51226;47.504;19.074;2022-11-12T00:57:46;36.47;;;26.25;;
64791;SDS011;51226;47.504;19.074;2022-11-12T01:01:09;31.05;;;23.67;;
64791;SDS011;51226;47.504;19.074;2022-11-12T01:04:32;29.30;;;21.85;;
64791;SDS011;51226;47.504;19.074;2022-11-12T01:07:53;25.92;;;20.95;;
64791;SDS011;51226;47.504;19.074;2022-11-12T01:11:17;29.87;;;22.60;;
64791;SDS011;51226;47.504;19.074;2022-11-12T01:14:40;24.30;;;20.62;;
64791;SDS011;51226;47.504;19.074;2022-11-12T01:18:01;29.58;;;21.37;;
64791;SDS011;51226;47.504;19.074;2022-11-12T01:21:23;27.92;;;22.50;;
64791;SDS011;51226;47.504;19.074;2022-11-12T01:24:45;27.33;;;21.30;;
64791;SDS011;51226;47.504;19.074;2022-11-12T01:28:06;28.73;;;23.08;;
64791;SDS011;51226;47.504;19.074;2022-11-12T01:31:29;30.67;;;23.62;;
64791;SDS011;51226;47.504;19.074;2022-11-12T01:34:53;30.05;;;25.50;;
64791;SDS011;51226;47.504;19.074;2022-11-12T01:38:14;30.37;;;25.25;;
64791;SDS011;51226;47.504;19.074;2022-11-12T01:41:36;32.60;;;26.65;;
64791;SDS011;51226;47.504;19.074;2022-11-12T01:44:58;37.40;;;27.87;;
64791;SDS011;51226;47.504;19.074;2022-11-12T01:51:49;34.88;;;27.73;;
64791;SDS011;51226;47.504;19.074;2022-11-12T01:55:18;34.88;;;27.00;;
64791;SDS011;51226;47.504;19.074;2022-11-12T01:58:41;35.58;;;28.35;;
64791;SDS011;51226;47.504;19.074;2022-11-12T02:02:05;32.97;;;27.73;;
64791;SDS011;51226;47.504;19.074;2022-11-12T02:05:26;35.03;;;27.58;;
64791;SDS011;51226;47.504;19.074;2022-11-12T02:08:49;33.60;;;27.77;;
64791;SDS011;51226;47.504;19.074;2022-11-12T02:12:11;38.03;;;28.20;;
64791;SDS011;51226;47.504;19.074;2022-11-12T02:15:53;33.42;;;27.52;;
64791;SDS011;51226;47.504;19.074;2022-11-12T02:19:15;32.25;;;26.90;;
64791;SDS011;51226;47.504;19.074;2022-11-12T02:22:37;34.03;;;27.25;;
64791;SDS011;51226;47.504;19.074;2022-11-12T02:25:59;32.10;;;27.15;;
64791;SDS011;51226;47.504;19.074;2022-11-12T02:29:21;33.22;;;27.33;;
64791;SDS011;51226;47.504;19.074;2022-11-12T02:32:42;33.97;;;28.10;;
64791;SDS011;51226;47.504;19.074;2022-11-12T02:36:03;31.42;;;26.42;;
64791;SDS011;51226;47.504;19.074;2022-11-12T02:39:25;32.75;;;27.27;;
64791;SDS011;51226;47.504;19.074;2022-11-12T02:42:46;31.52;;;25.90;;
64791;SDS011;51226;47.504;19.074;2022-11-12T02:46:07;32.85;;;27.58;;
64791;SDS011;51226;47.504;19.074;2022-11-12T02:49:28;35.88;;;28.73;;
64791;SDS011;51226;47.504;19.074;2022-11-12T02:52:50;35.00;;;27.55;;
64791;SDS011;51226;47.504;19.074;2022-11-12T02:56:11;32.70;;;27.33;;
64791;SDS011;51226;47.504;19.074;2022-11-12T02:59:32;34.80;;;26.62;;
64791;SDS011;51226;47.504;19.074;2022-11-12T03:02:53;33.33;;;27.42;;
64791;SDS011;51226;47.504;19.074;2022-11-12T03:06:21;32.00;;;25.50;;
64791;SDS011;51226;47.504;19.074;2022-11-12T03:09:42;34.05;;;25.52;;
64791;SDS011;51226;47.504;19.074;2022-11-12T03:13:04;29.73;;;25.67;;
64791;SDS011;51226;47.504;19.074;2022-11-12T03:16:26;34.10;;;25.07;;
64791;SDS011;51226;47.504;19.074;2022-11-12T03:19:48;31.45;;;24.55;;
64791;SDS011;51226;47.504;19.074;2022-11-12T03:23:09;28.00;;;24.10;;
64791;SDS011;51226;47.504;19.074;2022-11-12T03:26:31;33.97;;;26.02;;
64791;SDS011;51226;47.504;19.074;2022-11-12T03:29:55;32.65;;;26.30;;
64791;SDS011;51226;47.504;19.074;2022-11-12T03:33:17;29.30;;;25.98;;
64791;SDS011;51226;47.504;19.074;2022-11-12T03:36:38;35.35;;;26.83;;
64791;SDS011;51226;47.504;19.074;2022-11-12T03:39:59;37.03;;;27.98;;
64791;SDS011;51226;47.504;19.074;2022-11-12T03:43:21;39.50;;;29.52;;
64791;SDS011;51226;47.504;19.074;2022-11-12T03:46:42;37.47;;;30.37;;
64791;SDS011;51226;47.504;19.074;2022-11-12T03:50:04;39.60;;;30.62;;
64791;SDS011;51226;47.504;19.074;2022-11-12T03:53:26;37.78;;;32.17;;
64791;SDS011;51226;47.504;19.074;2022-11-12T03:56:47;37.38;;;31.15;;
64791;SDS011;51226;47.504;19.074;2022-11-12T04:00:09;37.03;;;30.25;;
64791;SDS011;51226;47.504;19.074;2022-11-12T04:03:32;42.83;;;31.35;;
64791;SDS011;51226;47.504;19.074;2022-11-12T04:06:53;38.15;;;31.75;;
64791;SDS011;51226;47.504;19.074;2022-11-12T04:10:34;39.95;;;30.88;;
64791;SDS011;51226;47.504;19.074;2022-11-12T04:13:55;39.47;;;30.55;;
64791;SDS011;51226;47.504;19.074;2022-11-12T04:17:16;38.20;;;31.40;;
64791;SDS011;51226;47.504;19.074;2022-11-12T04:20:55;38.92;;;31.23;;
64791;SDS011;51226;47.504;19.074;2022-11-12T04:24:36;35.33;;;30.25;;
64791;SDS011;51226;47.504;19.074;2022-11-12T04:28:17;40.15;;;29.85;;
64791;SDS011;51226;47.504;19.074;2022-11-12T04:31:39;36.92;;;29.87;;
64791;SDS011;51226;47.504;19.074;2022-11-12T04:35:00;38.80;;;28.92;;
64791;SDS011;51226;47.504;19.074;2022-11-12T04:38:22;40.22;;;30.58;;
64791;SDS011;51226;47.504;19.074;2022-11-12T04:41:43;35.67;;;28.90;;
64791;SDS011;51226;47.504;19.074;2022-11-12T04:45:22;33.88;;;27.62;;
64791;SDS011;51226;47.504;19.074;2022-11-12T04:48:44;37.42;;;28.83;;
64791;SDS011;51226;47.504;19.074;2022-11-12T04:52:05;39.45;;;28.98;;
64791;SDS011;51226;47.504;19.074;2022-11-12T04:55:26;35.95;;;28.12;;
64791;SDS011;51226;47.504;19.074;2022-11-12T04:58:48;32.92;;;26.77;;
64791;SDS011;51226;47.504;19.074;2022-11-12T05:02:09;34.40;;;25.60;;
64791;SDS011;51226;47.504;19.074;2022-11-12T05:05:30;35.35;;;27.42;;
64791;SDS011;51226;47.504;19.074;2022-11-12T05:08:54;34.22;;;26.95;;
64791;SDS011;51226;47.504;19.074;2022-11-12T05:12:15;32.97;;;26.83;;
64791;SDS011;51226;47.504;19.074;2022-11-12T05:15:36;34.75;;;27.27;;
64791;SDS011;51226;47.504;19.074;2022-11-12T05:18:57;33.35;;;26.58;;
64791;SDS011;51226;47.504;19.074;2022-11-12T05:22:18;33.45;;;27.35;;
64791;SDS011;51226;47.504;19.074;2022-11-12T05:26:00;33.53;;;26.98;;
64791;SDS011;51226;47.504;19.074;2022-11-12T05:29:21;37.55;;;28.80;;
64791;SDS011;51226;47.504;19.074;2022-11-12T05:32:42;35.08;;;27.02;;
64791;SDS011;51226;47.504;19.074;2022-11-12T05:36:03;35.03;;;26.90;;
64791;SDS011;51226;47.504;19.074;2022-11-12T05:39:25;34.25;;;26.12;;
64791;SDS011;51226;47.504;19.074;2022-11-12T05:42:46;33.97;;;27.92;;
64791;SDS011;51226;47.504;19.074;2022-11-12T05:46:08;30.02;;;25.23;;
64791;SDS011;51226;47.504;19.074;2022-11-12T05:49:29;32.20;;;26.95;;
64791;SDS011;51226;47.504;19.074;2022-11-12T05:52:50;34.75;;;26.95;;
64791;SDS011;51226;47.504;19.074;2022-11-12T05:56:11;34.47;;;26.48;;
64791;SDS011;51226;47.504;19.074;2022-11-12T05:59:33;35.08;;;26.90;;
64791;SDS011;51226;47.504;19.074;2022-11-12T06:02:55;34.25;;;26.67;;
64791;SDS011;51226;47.504;19.074;2022-11-12T06:06:18;31.23;;;26.23;;
64791;SDS011;51226;47.504;19.074;2022-11-12T06:09:39;31.15;;;27.77;;
64791;SDS011;51226;47.504;19.074;2022-11-12T06:13:00;33.35;;;26.73;;
64791;SDS011;51226;47.504;19.074;2022-11-12T06:16:21;33.50;;;27.70;;
64791;SDS011;51226;47.504;19.074;2022-11-12T06:19:43;33.88;;;26.33;;
64791;SDS011;51226;47.504;19.074;2022-11-12T06:23:04;33.17;;;27.30;;
64791;SDS011;51226;47.504;19.074;2022-11-12T06:26:26;35.10;;;26.67;;
64791;SDS011;51226;47.504;19.074;2022-11-12T06:29:48;35.57;;;26.77;;
64791;SDS011;51226;47.504;19.074;2022-11-12T06:33:10;33.45;;;28.08;;
64791;SDS011;51226;47.504;19.074;2022-11-12T06:36:31;38.95;;;26.73;;
64791;SDS011;51226;47.504;19.074;2022-11-12T06:39:52;37.58;;;29.80;;
64791;SDS011;51226;47.504;19.074;2022-11-12T06:43:14;41.88;;;31.77;;
64791;SDS011;51226;47.504;19.074;2022-11-12T06:46:35;35.55;;;28.73;;
64791;SDS011;51226;47.504;19.074;2022-11-12T06:49:56;30.73;;;25.73;;
64791;SDS011;51226;47.504;19.074;2022-11-12T06:53:17;32.90;;;27.08;;
64791;SDS011;51226;47.504;19.074;2022-11-12T06:56:39;29.75;;;25.70;;
64791;SDS011;51226;47.504;19.074;2022-11-12T07:00:00;30.92;;;25.95;;
64791;SDS011;51226;47.504;19.074;2022-11-12T07:03:21;32.33;;;26.75;;
64791;SDS011;51226;47.504;19.074;2022-11-12T07:06:42;34.08;;;26.10;;
64791;SDS011;51226;47.504;19.074;2022-11-12T07:10:03;31.27;;;25.92;;
64791;SDS011;51226;47.504;19.074;2022-11-12T07:13:25;41.30;;;33.65;;
64791;SDS011;51226;47.504;19.074;2022-11-12T07:16:47;42.53;;;33.03;;
64791;SDS011;51226;47.504;19.074;2022-11-12T07:20:08;33.40;;;27.25;;
64791;SDS011;51226;47.504;19.074;2022-11-12T07:23:30;30.27;;;24.52;;
64791;SDS011;51226;47.504;19.074;2022-11-12T07:26:52;29.87;;;24.33;;
64791;SDS011;51226;47.504;19.074;2022-11-12T07:30:14;30.40;;;25.85;;
64791;SDS011;51226;47.504;19.074;2022-11-12T07:33:36;28.25;;;24.45;;
64791;SDS011;51226;47.504;19.074;2022-11-12T07:36:57;30.67;;;24.25;;
64791;SDS011;51226;47.504;19.074;2022-11-12T07:40:18;30.10;;;24.85;;
64791;SDS011;51226;47.504;19.074;2022-11-12T07:43:40;32.40;;;24.58;;
64791;SDS011;51226;47.504;19.074;2022-11-12T07:47:03;30.30;;;25.50;;
64791;SDS011;51226;47.504;19.074;2022-11-12T07:50:24;30.00;;;23.75;;
64791;SDS011;51226;47.504;19.074;2022-11-12T07:53:46;28.05;;;24.35;;
64791;SDS011;51226;47.504;19.074;2022-11-12T07:57:08;29.85;;;24.15;;
64791;SDS011;51226;47.504;19.074;2022-11-12T08:00:29;26.25;;;22.80;;
64791;SDS011;51226;47.504;19.074;2022-11-12T08:03:51;23.80;;;20.98;;
64791;SDS011;51226;47.504;19.074;2022-11-12T08:07:12;27.62;;;21.85;;
64791;SDS011;51226;47.504;19.074;2022-11-12T08:10:33;23.65;;;20.10;;
64791;SDS011;51226;47.504;19.074;2022-11-12T08:13:54;52.50;;;40.92;;
64791;SDS011;51226;47.504;19.074;2022-11-12T08:17:16;37.33;;;28.62;;
64791;SDS011;51226;47.504;19.074;2022-11-12T08:20:37;24.92;;;22.10;;
64791;SDS011;51226;47.504;19.074;2022-11-12T08:23:58;26.42;;;22.40;;
64791;SDS011;51226;47.504;19.074;2022-11-12T08:27:20;25.62;;;22.05;;
64791;SDS011;51226;47.504;19.074;2022-11-12T08:30:45;27.70;;;23.73;;
64791;SDS011;51226;47.504;19.074;2022-11-12T08:34:06;30.85;;;25.37;;
64791;SDS011;51226;47.504;19.074;2022-11-12T08:37:40;28.42;;;23.23;;
64791;SDS011;51226;47.504;19.074;2022-11-12T08:41:06;29.60;;;24.58;;
64791;SDS011;51226;47.504;19.074;2022-11-12T08:44:29;32.13;;;24.65;;
64791;SDS011;51226;47.504;19.074;2022-11-12T08:47:51;37.53;;;27.50;;
64791;SDS011;51226;47.504;19.074;2022-11-12T08:51:12;31.98;;;26.00;;
64791;SDS011;51226;47.504;19.074;2022-11-12T08:54:33;31.27;;;26.30;;
64791;SDS011;51226;47.504;19.074;2022-11-12T08:57:54;33.45;;;27.92;;
64791;SDS011;51226;47.504;19.074;2022-11-12T09:01:18;33.80;;;27.33;;
64791;SDS011;51226;47.504;19.074;2022-11-12T09:04:40;31.92;;;25.58;;
64791;SDS011;51226;47.504;19.074;2022-11-12T09:08:03;40.25;;;28.73;;
64791;SDS011;51226;47.504;19.074;2022-11-12T09:11:26;35.40;;;27.73;;
64791;SDS011;51226;47.504;19.074;2022-11-12T09:14:47;36.22;;;28.67;;
64791;SDS011;51226;47.504;19.074;2022-11-12T09:18:15;41.42;;;33.35;;
64791;SDS011;51226;47.504;19.074;2022-11-12T09:21:38;47.15;;;36.08;;
64791;SDS011;51226;47.504;19.074;2022-11-12T09:24:59;37.00;;;28.90;;
64791;SDS011;51226;47.504;19.074;2022-11-12T09:28:20;35.45;;;27.70;;
64791;SDS011;51226;47.504;19.074;2022-11-12T09:31:42;36.97;;;29.87;;
64791;SDS011;51226;47.504;19.074;2022-11-12T09:35:03;36.05;;;27.55;;
64791;SDS011;51226;47.504;19.074;2022-11-12T09:38:24;37.10;;;28.52;;
64791;SDS011;51226;47.504;19.074;2022-11-12T09:41:46;37.25;;;28.10;;
64791;SDS011;51226;47.504;19.074;2022-11-12T09:45:12;36.03;;;28.35;;
64791;SDS011;51226;47.504;19.074;2022-11-12T09:48:39;37.38;;;28.73;;
64791;SDS011;51226;47.504;19.074;2022-11-12T09:52:15;39.75;;;28.85;;
64791;SDS011;51226;47.504;19.074;2022-11-12T09:55:42;35.28;;;28.67;;
64791;SDS011;51226;47.504;19.074;2022-11-12T09:59:11;39.83;;;30.60;;
64791;SDS011;51226;47.504;19.074;2022-11-12T10:02:38;38.67;;;28.87;;
64791;SDS011;51226;47.504;19.074;2022-11-12T10:06:11;35.63;;;27.80;;
64791;SDS011;51226;47.504;19.074;2022-11-12T10:09:43;32.92;;;27.13;;
64791;SDS011;51226;47.504;19.074;2022-11-12T10:13:28;34.20;;;27.48;;
64791;SDS011;51226;47.504;19.074;2022-11-12T10:17:05;32.63;;;26.30;;
64791;SDS011;51226;47.504;19.074;2022-11-12T10:24:12;32.05;;;27.08;;
64791;SDS011;51226;47.504;19.074;2022-11-12T10:27:37;32.38;;;25.80;;
64791;SDS011;51226;47.504;19.074;2022-11-12T10:31:01;37.80;;;27.50;;
64791;SDS011;51226;47.504;19.074;2022-11-12T10:34:30;52.40;;;41.22;;
64791;SDS011;51226;47.504;19.074;2022-11-12T10:44:45;35.47;;;27.25;;
64791;SDS011;51226;47.504;19.074;2022-11-12T10:48:28;30.30;;;24.17;;
64791;SDS011;51226;47.504;19.074;2022-11-12T10:51:56;30.85;;;25.48;;
64791;SDS011;51226;47.504;19.074;2022-11-12T10:55:20;31.55;;;25.95;;
64791;SDS011;51226;47.504;19.074;2022-11-12T10:58:43;31.35;;;25.42;;
64791;SDS011;51226;47.504;19.074;2022-11-12T11:02:13;35.00;;;28.20;;
64791;SDS011;51226;47.504;19.074;2022-11-12T11:12:32;31.92;;;25.58;;
64791;SDS011;51226;47.504;19.074;2022-11-12T11:15:58;29.77;;;24.65;;
64791;SDS011;51226;47.504;19.074;2022-11-12T11:19:19;30.65;;;26.05;;
64791;SDS011;51226;47.504;19.074;2022-11-12T11:22:41;64.68;;;50.50;;
64791;SDS011;51226;47.504;19.074;2022-11-12T11:40:26;32.10;;;26.87;;
64791;SDS011;51226;47.504;19.074;2022-11-12T11:55:21;35.60;;;26.83;;
64791;SDS011;51226;47.504;19.074;2022-11-12T12:13:20;34.83;;;27.37;;
64791;SDS011;51226;47.504;19.074;2022-11-12T12:17:10;34.42;;;27.08;;
64791;SDS011;51226;47.504;19.074;2022-11-12T12:24:35;32.83;;;28.50;;
64791;SDS011;51226;47.504;19.074;2022-11-12T12:28:04;37.13;;;28.12;;
64791;SDS011;51226;47.504;19.074;2022-11-12T12:31:31;35.47;;;27.67;;
64791;SDS011;51226;47.504;19.074;2022-11-12T12:35:12;39.30;;;29.85;;
64791;SDS011;51226;47.504;19.074;2022-11-12T12:39:03;45.85;;;34.05;;
64791;SDS011;51226;47.504;19.074;2022-11-12T12:42:39;35.60;;;29.40;;
64791;SDS011;51226;47.504;19.074;2022-11-12T12:46:05;40.95;;;28.87;;
64791;SDS011;51226;47.504;19.074;2022-11-12T12:49:31;35.75;;;28.90;;
64791;SDS011;51226;47.504;19.074;2022-11-12T12:52:57;33.55;;;26.37;;
64791;SDS011;51226;47.504;19.074;2022-11-12T12:56:41;33.40;;;27.27;;
64791;SDS011;51226;47.504;19.074;2022-11-12T13:00:27;38.42;;;28.60;;
64791;SDS011;51226;47.504;19.074;2022-11-12T13:03:54;38.78;;;27.98;;
64791;SDS011;51226;47.504;19.074;2022-11-12T13:17:56;38.63;;;26.67;;
64791;SDS011;51226;47.504;19.074;2022-11-12T13:21:18;32.13;;;25.40;;
64791;SDS011;51226;47.504;19.074;2022-11-12T13:25:03;42.22;;;29.40;;
64791;SDS011;51226;47.504;19.074;2022-11-12T13:28:27;34.88;;;27.67;;
64791;SDS011;51226;47.504;19.074;2022-11-12T13:31:48;43.35;;;31.58;;
64791;SDS011;51226;47.504;19.074;2022-11-12T13:35:33;39.28;;;29.23;;
64791;SDS011;51226;47.504;19.074;2022-11-12T13:39:09;38.60;;;28.83;;
64791;SDS011;51226;47.504;19.074;2022-11-12T13:42:33;40.42;;;28.83;;
64791;SDS011;51226;47.504;19.074;2022-11-12T13:46:26;51.53;;;39.10;;
64791;SDS011;51226;47.504;19.074;2022-11-12T13:49:52;46.85;;;35.85;;
64791;SDS011;51226;47.504;19.074;2022-11-12T13:53:17;36.92;;;29.00;;
64791;SDS011;51226;47.504;19.074;2022-11-12T14:03:42;21.53;;;16.47;;
64791;SDS011;51226;47.504;19.074;2022-11-12T14:22:09;13.35;;;10.13;;
64791;SDS011;51226;47.504;19.074;2022-11-12T14:25:31;12.35;;;9.93;;
64791;SDS011;51226;47.504;19.074;2022-11-12T14:28:55;17.83;;;11.38;;
64791;SDS011;51226;47.504;19.074;2022-11-12T14:32:17;22.77;;;13.70;;
64791;SDS011;51226;47.504;19.074;2022-11-12T14:35:38;19.52;;;15.27;;
64791;SDS011;51226;47.504;19.074;2022-11-12T14:39:00;22.17;;;16.12;;
64791;SDS011;51226;47.504;19.074;2022-11-12T14:42:21;23.87;;;17.70;;
64791;SDS011;51226;47.504;19.074;2022-11-12T14:45:46;25.75;;;17.60;;
64791;SDS011;51226;47.504;19.074;2022-11-12T14:52:40;25.10;;;19.42;;
64791;SDS011;51226;47.504;19.074;2022-11-12T14:56:03;25.98;;;18.25;;
64791;SDS011;51226;47.504;19.074;2022-11-12T14:59:29;27.17;;;20.20;;
64791;SDS011;51226;47.504;19.074;2022-11-12T15:02:51;25.73;;;18.95;;
64791;SDS011;51226;47.504;19.074;2022-11-12T15:06:21;23.65;;;19.30;;
64791;SDS011;51226;47.504;19.074;2022-11-12T15:09:52;24.60;;;18.47;;
64791;SDS011;51226;47.504;19.074;2022-11-12T15:13:14;32.17;;;20.75;;
64791;SDS011;51226;47.504;19.074;2022-11-12T15:16:37;30.30;;;20.80;;
64791;SDS011;51226;47.504;19.074;2022-11-12T15:20:13;29.10;;;21.30;;
64791;SDS011;51226;47.504;19.074;2022-11-12T15:31:14;29.33;;;23.95;;
64791;SDS011;51226;47.504;19.074;2022-11-12T15:38:00;34.80;;;23.55;;
64791;SDS011;51226;47.504;19.074;2022-11-12T15:41:28;36.15;;;25.05;;
64791;SDS011;51226;47.504;19.074;2022-11-12T15:44:50;36.05;;;26.02;;
64791;SDS011;51226;47.504;19.074;2022-11-12T15:51:44;34.35;;;26.48;;
64791;SDS011;51226;47.504;19.074;2022-11-12T15:55:06;39.55;;;27.70;;
64791;SDS011;51226;47.504;19.074;2022-11-12T15:58:29;38.13;;;29.42;;
64791;SDS011;51226;47.504;19.074;2022-11-12T16:01:54;40.92;;;28.92;;
64791;SDS011;51226;47.504;19.074;2022-11-12T16:05:15;37.70;;;27.67;;
64791;SDS011;51226;47.504;19.074;2022-11-12T16:08:38;37.60;;;28.65;;
64791;SDS011;51226;47.504;19.074;2022-11-12T16:11:59;38.83;;;29.48;;
64791;SDS011;51226;47.504;19.074;2022-11-12T16:15:21;40.80;;;28.02;;
64791;SDS011;51226;47.504;19.074;2022-11-12T16:22:06;38.85;;;27.70;;
64791;SDS011;51226;47.504;19.074;2022-11-12T16:25:33;36.88;;;28.73;;
64791;SDS011;51226;47.504;19.074;2022-11-12T16:32:17;40.70;;;28.73;;
64791;SDS011;51226;47.504;19.074;2022-11-12T16:35:38;36.25;;;29.70;;
64791;SDS011;51226;47.504;19.074;2022-11-12T16:39:00;41.13;;;30.05;;
64791;SDS011;51226;47.504;19.074;2022-11-12T16:42:22;39.78;;;29.33;;
64791;SDS011;51226;47.504;19.074;2022-11-12T16:45:43;41.80;;;30.23;;
64791;SDS011;51226;47.504;19.074;2022-11-12T16:49:08;37.10;;;28.00;;
64791;SDS011;51226;47.504;19.074;2022-11-12T16:52:31;37.25;;;29.12;;
64791;SDS011;51226;47.504;19.074;2022-11-12T16:55:52;39.03;;;28.48;;
64791;SDS011;51226;47.504;19.074;2022-11-12T16:59:16;36.78;;;30.23;;
64791;SDS011;51226;47.504;19.074;2022-11-12T17:02:37;40.12;;;28.98;;
64791;SDS011;51226;47.504;19.074;2022-11-12T17:06:05;39.38;;;29.35;;
64791;SDS011;51226;47.504;19.074;2022-11-12T17:09:27;41.03;;;29.80;;
64791;SDS011;51226;47.504;19.074;2022-11-12T17:12:48;39.60;;;30.65;;
64791;SDS011;51226;47.504;19.074;2022-11-12T17:16:11;38.33;;;29.73;;
64791;SDS011;51226;47.504;19.074;2022-11-12T17:19:32;41.33;;;31.35;;
64791;SDS011;51226;47.504;19.074;2022-11-12T17:22:53;42.40;;;31.20;;
64791;SDS011;51226;47.504;19.074;2022-11-12T17:26:15;41.63;;;30.92;;
64791;SDS011;51226;47.504;19.074;2022-11-12T17:29:37;41.63;;;32.70;;
64791;SDS011;51226;47.504;19.074;2022-11-12T17:32:58;45.35;;;32.72;;
64791;SDS011;51226;47.504;19.074;2022-11-12T17:36:21;43.20;;;33.90;;
64791;SDS011;51226;47.504;19.074;2022-11-12T17:39:45;45.42;;;32.13;;
64791;SDS011;51226;47.504;19.074;2022-11-12T17:43:06;44.20;;;32.20;;
64791;SDS011;51226;47.504;19.074;2022-11-12T17:46:28;46.30;;;33.92;;
64791;SDS011;51226;47.504;19.074;2022-11-12T17:49:50;45.85;;;34.42;;
64791;SDS011;51226;47.504;19.074;2022-11-12T17:53:11;44.45;;;32.45;;
64791;SDS011;51226;47.504;19.074;2022-11-12T17:56:33;50.00;;;34.60;;
64791;SDS011;51226;47.504;19.074;2022-11-12T17:59:57;51.37;;;35.30;;
64791;SDS011;51226;47.504;19.074;2022-11-12T18:03:18;43.40;;;34.83;;
64791;SDS011;51226;47.504;19.074;2022-11-12T18:06:39;51.75;;;38.40;;
64791;SDS011;51226;47.504;19.074;2022-11-12T18:10:02;46.53;;;33.45;;
64791;SDS011;51226;47.504;19.074;2022-11-12T18:13:23;53.50;;;38.55;;
64791;SDS011;51226;47.504;19.074;2022-11-12T18:16:47;48.38;;;36.45;;
64791;SDS011;51226;47.504;19.074;2022-11-12T18:20:08;43.75;;;33.97;;
64791;SDS011;51226;47.504;19.074;2022-11-12T18:23:30;46.53;;;34.80;;
64791;SDS011;51226;47.504;19.074;2022-11-12T18:26:51;49.20;;;34.15;;
64791;SDS011;51226;47.504;19.074;2022-11-12T18:30:12;50.60;;;36.58;;
64791;SDS011;51226;47.504;19.074;2022-11-12T18:33:38;47.95;;;35.65;;
64791;SDS011;51226;47.504;19.074;2022-11-12T18:37:00;45.63;;;34.80;;
64791;SDS011;51226;47.504;19.074;2022-11-12T18:40:21;46.20;;;36.40;;
64791;SDS011;51226;47.504;19.074;2022-11-12T18:43:43;51.50;;;34.83;;
64791;SDS011;51226;47.504;19.074;2022-11-12T18:47:04;47.40;;;36.40;;
64791;SDS011;51226;47.504;19.074;2022-11-12T18:50:26;52.70;;;38.03;;
64791;SDS011;51226;47.504;19.074;2022-11-12T18:53:47;47.92;;;37.28;;
64791;SDS011;51226;47.504;19.074;2022-11-12T18:57:08;50.83;;;37.58;;
64791;SDS011;51226;47.504;19.074;2022-11-12T19:00:29;46.83;;;35.33;;
64791;SDS011;51226;47.504;19.074;2022-11-12T19:03:51;46.75;;;36.72;;
64791;SDS011;51226;47.504;19.074;2022-11-12T19:07:15;48.47;;;36.83;;
64791;SDS011;51226;47.504;19.074;2022-11-12T19:10:36;45.72;;;37.00;;
64791;SDS011;51226;47.504;19.074;2022-11-12T19:13:58;49.40;;;36.63;;
64791;SDS011;51226;47.504;19.074;2022-11-12T19:17:19;48.35;;;36.92;;
64791;SDS011;51226;47.504;19.074;2022-11-12T19:20:40;52.97;;;38.85;;
64791;SDS011;51226;47.504;19.074;2022-11-12T19:24:01;49.13;;;37.60;;
64791;SDS011;51226;47.504;19.074;2022-11-12T19:27:22;53.70;;;39.13;;
64791;SDS011;51226;47.504;19.074;2022-11-12T19:30:43;49.55;;;39.05;;
64791;SDS011;51226;47.504;19.074;2022-11-12T19:34:04;50.97;;;38.75;;
64791;SDS011;51226;47.504;19.074;2022-11-12T19:37:25;58.65;;;40.40;;
64791;SDS011;51226;47.504;19.074;2022-11-12T19:40:53;49.50;;;39.45;;
64791;SDS011;51226;47.504;19.074;2022-11-12T19:44:15;50.05;;;38.42;;
64791;SDS011;51226;47.504;19.074;2022-11-12T19:47:36;47.65;;;37.35;;
64791;SDS011;51226;47.504;19.074;2022-11-12T19:51:00;47.75;;;37.63;;
64791;SDS011;51226;47.504;19.074;2022-11-12T19:54:23;53.50;;;38.58;;
64791;SDS011;51226;47.504;19.074;2022-11-12T19:57:44;49.95;;;39.08;;
64791;SDS011;51226;47.504;19.074;2022-11-12T20:01:07;57.90;;;41.72;;
64791;SDS011;51226;47.504;19.074;2022-11-12T20:04:29;57.42;;;42.55;;
64791;SDS011;51226;47.504;19.074;2022-11-12T20:07:51;52.42;;;39.53;;
64791;SDS011;51226;47.504;19.074;2022-11-12T20:11:14;48.78;;;39.72;;
64791;SDS011;51226;47.504;19.074;2022-11-12T20:14:37;53.63;;;39.03;;
64791;SDS011;51226;47.504;19.074;2022-11-12T20:17:59;48.15;;;38.58;;
64791;SDS011;51226;47.504;19.074;2022-11-12T20:21:20;56.03;;;40.33;;
64791;SDS011;51226;47.504;19.074;2022-11-12T20:24:42;51.33;;;40.20;;
64791;SDS011;51226;47.504;19.074;2022-11-12T20:28:03;53.50;;;42.33;;
64791;SDS011;51226;47.504;19.074;2022-11-12T20:31:24;54.25;;;42.47;;
64791;SDS011;51226;47.504;19.074;2022-11-12T20:34:45;54.83;;;41.47;;
64791;SDS011;51226;47.504;19.074;2022-11-12T20:38:07;54.13;;;41.47;;
64791;SDS011;51226;47.504;19.074;2022-11-12T20:41:28;56.15;;;43.63;;
64791;SDS011;51226;47.504;19.074;2022-11-12T20:44:51;63.10;;;47.75;;
64791;SDS011;51226;47.504;19.074;2022-11-12T20:48:13;58.38;;;44.67;;
64791;SDS011;51226;47.504;19.074;2022-11-12T20:51:34;56.40;;;45.05;;
64791;SDS011;51226;47.504;19.074;2022-11-12T20:54:56;56.13;;;44.78;;
64791;SDS011;51226;47.504;19.074;2022-11-12T20:58:17;61.28;;;45.20;;
64791;SDS011;51226;47.504;19.074;2022-11-12T21:01:38;61.85;;;46.17;;
64791;SDS011;51226;47.504;19.074;2022-11-12T21:05:00;56.00;;;44.03;;
64791;SDS011;51226;47.504;19.074;2022-11-12T21:08:21;58.90;;;45.05;;
64791;SDS011;51226;47.504;19.074;2022-11-12T21:11:42;58.22;;;46.78;;
64791;SDS011;51226;47.504;19.074;2022-11-12T21:15:04;60.63;;;48.67;;
64791;SDS011;51226;47.504;19.074;2022-11-12T21:18:26;58.65;;;46.50;;
64791;SDS011;51226;47.504;19.074;2022-11-12T21:21:48;62.15;;;47.33;;
64791;SDS011;51226;47.504;19.074;2022-11-12T21:25:10;65.65;;;46.67;;
64791;SDS011;51226;47.504;19.074;2022-11-12T21:28:34;69.90;;;46.33;;
64791;SDS011;51226;47.504;19.074;2022-11-12T21:31:58;61.50;;;46.37;;
64791;SDS011;51226;47.504;19.074;2022-11-12T21:35:19;63.53;;;48.22;;